createdAt,value
2022-12-26T00:00:48.512Z,100464.00
2022-12-26T00:03:16.986Z,100457.03
2022-12-26T00:05:43.469Z,100454.38
2022-12-26T00:08:09.933Z,100458.66
2022-12-26T00:10:36.408Z,100440.78
2022-12-26T00:13:37.082Z,100460.53
2022-12-26T00:15:50.267Z,100457.88
2022-12-26T00:18:16.765Z,100451.69
2022-12-26T00:23:28.997Z,100451.69
2022-12-26T00:25:55.370Z,100452.53
2022-12-26T00:28:21.735Z,100452.53
2022-12-26T00:30:48.087Z,100436.50
2022-12-26T00:33:14.465Z,100414.50
2022-12-26T00:35:40.856Z,100426.00
2022-12-26T00:38:07.877Z,100428.69
2022-12-26T00:40:34.220Z,100426.84
2022-12-26T00:43:00.574Z,100416.16
2022-12-26T00:45:27.429Z,100417.16
2022-12-26T00:47:53.825Z,100421.72
2022-12-26T00:50:20.247Z,100412.84
2022-12-26T00:52:46.851Z,100419.03
2022-12-26T00:55:13.379Z,100422.75
2022-12-26T00:57:39.808Z,100422.75
2022-12-26T01:00:06.758Z,100421.72
2022-12-26T01:02:33.587Z,100415.53
2022-12-26T01:05:00.378Z,100412.84
2022-12-26T01:07:27.437Z,100411.03
2022-12-26T01:09:53.893Z,100413.91
2022-12-26T01:12:20.546Z,100409.38
2022-12-26T01:14:47.337Z,100404.84
2022-12-26T01:17:13.670Z,100406.91
2022-12-26T01:19:39.989Z,100399.72
2022-12-26T01:22:06.482Z,100396.22
2022-12-26T01:24:34.001Z,100394.38
2022-12-26T01:27:01.047Z,100384.72
2022-12-26T01:29:27.354Z,100384.72
2022-12-26T01:31:53.937Z,100381.22
2022-12-26T01:34:20.560Z,100380.41
2022-12-26T01:36:47.075Z,100374.03
2022-12-26T01:39:13.387Z,100377.53
2022-12-26T01:41:39.707Z,100367.06
2022-12-26T01:44:06.247Z,100368.69
2022-12-26T01:46:32.626Z,100380.41
2022-12-26T01:48:59.682Z,100371.56
2022-12-26T01:51:25.994Z,100376.91
2022-12-26T01:53:52.539Z,100378.53
2022-12-26T01:56:19.107Z,100387.38
2022-12-26T01:58:45.411Z,100374.22
2022-12-26T02:01:12.230Z,100381.22
2022-12-26T02:03:39.349Z,100374.22
2022-12-26T02:06:06.168Z,100376.09
2022-12-26T02:08:33.544Z,100371.56
2022-12-26T02:11:01.619Z,100369.72
2022-12-26T02:13:28.135Z,100368.88
2022-12-26T02:15:55.015Z,100366.22
2022-12-26T02:18:22.489Z,100363.53
2022-12-26T02:20:48.962Z,100362.75
2022-12-26T02:23:16.618Z,100351.44
2022-12-26T02:25:43.112Z,100352.28
2022-12-26T02:28:09.873Z,100353.91
2022-12-26T02:30:36.818Z,100348.56
2022-12-26T02:33:03.143Z,100353.06
2022-12-26T02:35:32.136Z,100346.09
2022-12-26T02:37:58.483Z,100342.59
2022-12-26T02:40:25.093Z,100336.44
2022-12-26T02:42:51.751Z,100345.06
2022-12-26T02:45:18.148Z,100342.38
2022-12-26T02:47:46.685Z,100340.97
2022-12-26T02:50:13.484Z,100339.91
2022-12-26T02:52:39.795Z,100341.78
2022-12-26T02:55:06.164Z,100330.28
2022-12-26T02:57:32.808Z,100338.28
2022-12-26T02:59:59.538Z,100339.13
2022-12-26T03:02:25.972Z,100333.78
2022-12-26T03:04:52.491Z,100335.63
2022-12-26T03:07:18.998Z,100344.47
2022-12-26T03:09:45.467Z,100337.50
2022-12-26T03:12:11.784Z,100338.28
2022-12-26T03:14:38.530Z,100336.66
2022-12-26T03:17:05.493Z,100333.16
2022-12-26T03:19:31.975Z,100343.84
2022-12-26T03:21:58.550Z,100346.50
2022-12-26T03:24:25.760Z,100342.00
2022-12-26T03:26:52.211Z,100351.06
2022-12-26T03:29:19.184Z,100347.34
2022-12-26T03:31:46.065Z,100346.50
2022-12-26T03:34:12.668Z,100356.41
2022-12-26T03:36:39.014Z,100356.19
2022-12-26T03:39:05.609Z,100344.66
2022-12-26T03:41:32.122Z,100338.50
2022-12-26T03:43:58.875Z,100344.09
2022-12-26T03:46:25.721Z,100341.16
2022-12-26T03:48:52.255Z,100351.84
2022-12-26T03:51:19.178Z,100353.72
2022-12-26T03:53:45.832Z,100353.72
2022-12-26T03:56:12.338Z,100339.53
2022-12-26T03:58:39.278Z,100340.59
2022-12-26T04:01:06.105Z,100338.75
2022-12-26T04:03:33.147Z,100342.41
2022-12-26T04:06:00.459Z,100342.41
2022-12-26T04:08:27.524Z,100340.59
2022-12-26T04:10:54.375Z,100352.31
2022-12-26T04:16:05.272Z,100366.47
2022-12-26T04:18:32.413Z,100358.44
2022-12-26T04:20:58.713Z,100369.97
2022-12-26T04:23:25.381Z,100362.16
2022-12-26T04:25:52.484Z,100372.84
2022-12-26T04:28:18.807Z,100376.34
2022-12-26T04:30:45.657Z,100386.22
2022-12-26T04:33:12.072Z,100384.38
2022-12-26T04:35:38.537Z,100386.22
2022-12-26T04:38:05.778Z,100383.53
2022-12-26T04:40:32.253Z,100381.91
2022-12-26T04:42:59.163Z,100370.38
2022-12-26T04:45:25.927Z,100367.50
2022-12-26T04:47:52.257Z,100362.16
2022-12-26T04:50:18.631Z,100358.66
2022-12-26T04:52:45.035Z,100360.53
2022-12-26T04:55:11.596Z,100355.97
2022-12-26T04:57:37.923Z,100371.22
2022-12-26T05:00:04.644Z,100367.72
2022-12-26T05:02:33.383Z,100371.22
2022-12-26T05:04:59.833Z,100374.69
2022-12-26T05:07:26.268Z,100366.91
2022-12-26T05:09:53.292Z,100377.34
2022-12-26T05:12:19.928Z,100372.84
2022-12-26T05:14:46.345Z,100387.25
2022-12-26T05:17:13.422Z,100386.41
2022-12-26T05:19:39.736Z,100387.25
2022-12-26T05:22:06.358Z,100385.63
2022-12-26T05:24:32.868Z,100382.94
2022-12-26T05:26:59.552Z,100380.28
2022-12-26T05:29:26.479Z,100379.44
2022-12-26T05:31:53.247Z,100381.28
2022-12-26T05:34:19.573Z,100385.63
2022-12-26T05:36:45.843Z,100380.28
2022-12-26T05:39:12.476Z,100385.63
2022-12-26T05:41:39.437Z,100390.13
2022-12-26T05:44:06.205Z,100395.47
2022-12-26T05:46:33.213Z,100391.97
2022-12-26T05:48:59.803Z,100390.13
2022-12-26T05:51:27.300Z,100396.28
2022-12-26T05:53:53.626Z,100397.31
2022-12-26T05:56:20.049Z,100395.47
2022-12-26T05:58:46.450Z,100395.66
2022-12-26T06:01:13.188Z,100399.19
2022-12-26T06:03:39.779Z,100404.53
2022-12-26T06:06:06.339Z,100398.13
2022-12-26T06:08:33.111Z,100392.16
2022-12-26T06:10:59.976Z,100401.00
2022-12-26T06:13:26.415Z,100403.69
2022-12-26T06:15:56.172Z,100399.19
2022-12-26T06:18:22.570Z,100397.31
2022-12-26T06:20:49.817Z,100394.63
2022-12-26T06:23:16.136Z,100393.00
2022-12-26T06:25:42.879Z,100398.34
2022-12-26T06:28:09.286Z,100404.53
2022-12-26T06:30:36.038Z,100421.34
2022-12-26T06:33:05.997Z,100436.56
2022-12-26T06:35:33.002Z,100397.50
2022-12-26T06:37:59.396Z,100390.31
2022-12-26T06:40:28.395Z,100381.47
2022-12-26T06:42:55.245Z,100384.16
2022-12-26T06:45:22.493Z,100375.34
2022-12-26T06:47:48.823Z,100377.19
2022-12-26T06:50:15.652Z,100390.53
2022-12-26T06:52:41.968Z,100403.09
2022-12-26T06:55:08.602Z,100416.22
2022-12-26T06:57:35.583Z,100428.78
2022-12-26T07:00:02.175Z,100444.78
2022-12-26T07:02:28.980Z,100454.44
2022-12-26T07:04:55.634Z,100444.78
2022-12-26T07:07:22.003Z,100447.47
2022-12-26T07:09:48.721Z,100444.78
2022-12-26T07:12:15.281Z,100450.94
2022-12-26T07:14:41.765Z,100446.63
2022-12-26T07:17:09.228Z,100453.00
2022-12-26T07:19:36.367Z,100464.53
2022-12-26T07:22:02.999Z,100466.16
2022-12-26T07:24:29.407Z,100464.53
2022-12-26T07:26:56.061Z,100468.00
2022-12-26T07:29:22.415Z,100465.53
2022-12-26T07:31:48.936Z,100469.88
2022-12-26T07:34:15.383Z,100477.88
2022-12-26T07:36:42.102Z,100469.88
2022-12-26T07:39:08.765Z,100464.53
2022-12-26T07:41:35.917Z,100457.53
2022-12-26T07:44:03.761Z,100457.53
2022-12-26T07:46:30.496Z,100446.84
2022-12-26T07:48:56.974Z,100449.31
2022-12-26T07:51:23.806Z,100452.19
2022-12-26T07:56:34.561Z,100452.19
2022-12-26T07:59:01.025Z,100466.38
2022-12-26T08:01:27.865Z,100475.22
2022-12-26T08:03:54.387Z,100470.09
2022-12-26T08:06:20.716Z,100473.56
2022-12-26T08:08:51.113Z,100471.72
2022-12-26T08:11:17.855Z,100470.88
2022-12-26T08:13:44.265Z,100478.91
2022-12-26T08:16:11.002Z,100486.91
2022-12-26T08:18:37.810Z,100493.09
2022-12-26T08:21:04.286Z,100484.25
2022-12-26T08:23:31.068Z,100486.91
2022-12-26T08:25:57.402Z,100498.63
2022-12-26T08:28:23.898Z,100504.81
2022-12-26T08:30:50.413Z,100507.47
2022-12-26T08:33:16.748Z,100503.97
2022-12-26T08:35:43.734Z,100503.97
2022-12-26T08:38:10.113Z,100493.50
2022-12-26T08:40:45.002Z,100494.31
2022-12-26T08:43:30.257Z,100487.94
2022-12-26T08:45:58.325Z,100476.47
2022-12-26T08:48:24.695Z,100481.81
2022-12-26T08:50:51.118Z,100476.47
2022-12-26T08:53:17.969Z,100472.97
2022-12-26T08:55:44.637Z,100472.97
2022-12-26T08:58:11.217Z,100477.47
2022-12-26T09:00:38.343Z,100483.66
2022-12-26T09:03:05.256Z,100495.38
2022-12-26T09:05:31.660Z,100499.66
2022-12-26T09:07:58.052Z,100498.25
2022-12-26T09:10:24.590Z,100500.91
2022-12-26T09:12:51.909Z,100504.38
2022-12-26T09:15:18.287Z,100508.94
2022-12-26T09:17:44.633Z,100501.94
2022-12-26T09:20:11.768Z,100508.09
2022-12-26T09:22:38.486Z,100503.59
2022-12-26T09:25:05.250Z,100502.94
2022-12-26T09:27:31.784Z,100504.63
2022-12-26T09:29:58.112Z,100499.47
2022-12-26T09:32:24.960Z,100495.78
2022-12-26T09:34:53.689Z,100499.47
2022-12-26T09:37:22.493Z,100494.13
2022-12-26T09:39:48.836Z,100497.63
2022-12-26T09:42:15.234Z,100492.50
2022-12-26T09:44:41.534Z,100504.81
2022-12-26T09:47:08.242Z,100507.50
2022-12-26T09:49:34.748Z,100507.50
2022-12-26T09:52:01.538Z,100509.34
2022-12-26T09:54:28.476Z,100503.19
2022-12-26T09:57:03.428Z,100493.50
2022-12-26T09:59:31.467Z,100498.66
2022-12-26T10:01:58.006Z,100499.69
2022-12-26T10:04:29.054Z,100508.53
2022-12-26T10:06:56.651Z,100495.19
2022-12-26T10:09:23.693Z,100486.34
2022-12-26T10:11:50.684Z,100491.47
2022-12-26T10:14:21.644Z,100505.88
2022-12-26T10:16:48.458Z,100499.47
2022-12-26T10:19:14.889Z,100505.88
2022-12-26T10:21:41.357Z,100497.84
2022-12-26T10:24:07.944Z,100504.00
2022-12-26T10:26:34.750Z,100507.50
2022-12-26T10:29:01.802Z,100500.53
2022-12-26T10:31:28.408Z,100507.69
2022-12-26T10:33:55.087Z,100506.88
2022-12-26T10:36:21.645Z,100506.06
2022-12-26T10:38:48.537Z,100508.75
2022-12-26T10:41:15.237Z,100511.41
2022-12-26T10:43:41.597Z,100515.91
2022-12-26T10:46:07.940Z,100522.28
2022-12-26T10:48:34.704Z,100522.28
2022-12-26T10:51:01.598Z,100518.59
2022-12-26T10:53:27.920Z,100536.44
2022-12-26T10:55:54.447Z,100528.44
2022-12-26T10:58:20.930Z,100518.78
2022-12-26T11:00:47.400Z,100532.97
2022-12-26T11:03:14.119Z,100538.31
2022-12-26T11:06:06.482Z,100526.00
2022-12-26T11:08:27.627Z,100532.34
2022-12-26T11:10:54.314Z,100527.84
2022-12-26T11:13:20.669Z,100527.00
2022-12-26T11:15:47.442Z,100520.88
2022-12-26T11:18:15.875Z,100520.88
2022-12-26T11:20:42.627Z,100519.00
2022-12-26T11:23:09.354Z,100542.22
2022-12-26T11:25:36.003Z,100524.34
2022-12-26T11:28:02.648Z,100518.00
2022-12-26T11:30:29.189Z,100509.16
2022-12-26T11:32:56.106Z,100501.13
2022-12-26T11:35:22.815Z,100486.94
2022-12-26T11:37:50.015Z,100491.88
2022-12-26T11:40:16.576Z,100494.56
2022-12-26T11:42:43.007Z,100492.72
2022-12-26T11:45:09.390Z,100500.94
2022-12-26T11:47:36.362Z,100496.38
2022-12-26T11:50:02.709Z,100504.41
2022-12-26T11:52:29.735Z,100511.41
2022-12-26T11:54:56.186Z,100513.44
2022-12-26T11:57:23.014Z,100513.25
2022-12-26T11:59:49.287Z,100527.63
2022-12-26T12:02:15.797Z,100540.16
2022-12-26T12:04:42.173Z,100518.00
2022-12-26T12:07:08.911Z,100506.47
2022-12-26T12:09:35.677Z,100501.97
2022-12-26T12:12:02.900Z,100513.44
2022-12-26T12:14:29.278Z,100526.59
2022-12-26T12:16:56.007Z,100520.44
2022-12-26T12:19:23.283Z,100514.06
2022-12-26T12:21:49.731Z,100513.25
2022-12-26T12:24:16.607Z,100526.59
2022-12-26T12:26:43.154Z,100524.97
2022-12-26T12:29:09.582Z,100525.78
2022-12-26T12:31:36.474Z,100530.31
2022-12-26T12:34:03.874Z,100528.44
2022-12-26T12:36:30.222Z,100532.97
2022-12-26T12:38:56.902Z,100539.97
2022-12-26T12:41:23.794Z,100538.31
2022-12-26T12:43:50.443Z,100531.94
2022-12-26T12:46:17.336Z,100537.09
2022-12-26T12:48:45.116Z,100530.50
2022-12-26T12:51:11.992Z,100527.84
2022-12-26T12:53:38.860Z,100531.34
2022-12-26T12:56:05.732Z,100518.22
2022-12-26T12:58:32.482Z,100513.28
2022-12-26T13:00:59.605Z,100513.84
2022-12-26T13:03:26.344Z,100519.81
2022-12-26T13:05:52.752Z,100528.84
2022-12-26T13:08:19.497Z,100526.97
2022-12-26T13:10:46.675Z,100525.94
2022-12-26T13:13:13.586Z,100527.34
2022-12-26T13:15:40.068Z,100525.28
2022-12-26T13:18:07.259Z,100533.09
2022-12-26T13:20:34.165Z,100536.97
2022-12-26T13:23:01.289Z,100536.38
2022-12-26T13:25:27.967Z,100525.66
2022-12-26T13:27:54.419Z,100529.34
2022-12-26T13:30:20.800Z,100526.84
2022-12-26T13:32:48.180Z,100520.63
2022-12-26T13:38:00.711Z,100516.25
2022-12-26T13:40:28.052Z,100512.72
2022-12-26T13:42:54.523Z,100509.41
2022-12-26T13:45:20.909Z,100510.19
2022-12-26T13:47:49.953Z,100519.19
2022-12-26T13:50:16.894Z,100514.09
2022-12-26T13:52:43.257Z,100518.75
2022-12-26T13:55:09.879Z,100525.13
2022-12-26T13:57:36.839Z,100533.31
2022-12-26T14:00:03.925Z,100530.81
2022-12-26T14:02:58.693Z,100529.97
2022-12-26T14:05:19.740Z,100545.97
2022-12-26T14:07:47.286Z,100542.41
2022-12-26T14:13:02.517Z,100526.69
2022-12-26T14:15:28.938Z,100530.97
2022-12-26T14:17:56.251Z,100523.09
2022-12-26T14:20:22.879Z,100526.97
2022-12-26T14:22:49.766Z,100525.28
2022-12-26T14:25:17.466Z,100533.88
2022-12-26T14:27:43.979Z,100546.69
2022-12-26T14:32:57.246Z,100535.81
2022-12-26T14:35:24.203Z,100537.69
2022-12-26T14:37:51.315Z,100542.19
2022-12-26T14:40:18.036Z,100544.06
2022-12-26T14:42:44.553Z,100552.31
2022-12-26T14:45:11.258Z,100556.25
2022-12-26T14:47:38.043Z,100553.38
2022-12-26T14:50:04.835Z,100561.63
2022-12-26T14:52:34.520Z,100563.84
2022-12-26T14:55:03.855Z,100549.44
2022-12-26T14:57:32.270Z,100552.13
2022-12-26T15:00:03.427Z,100554.78
2022-12-26T15:02:30.933Z,100556.84
2022-12-26T15:04:57.848Z,100559.75
2022-12-26T15:07:24.431Z,100561.63
2022-12-26T15:09:50.980Z,100572.53
2022-12-26T15:12:17.776Z,100573.81
2022-12-26T15:14:44.754Z,100573.81
2022-12-26T15:17:11.467Z,100569.50
2022-12-26T15:19:38.025Z,100575.06
2022-12-26T15:22:05.282Z,100572.59
2022-12-26T15:25:16.519Z,100573.66
2022-12-26T15:27:19.099Z,100577.34
2022-12-26T15:29:46.042Z,100578.38
2022-12-26T15:32:13.180Z,100570.56
2022-12-26T15:34:39.916Z,100584.16
2022-12-26T15:37:07.497Z,100575.91
2022-12-26T15:39:34.179Z,100572.16
2022-12-26T15:42:01.168Z,100582.88
2022-12-26T15:44:28.029Z,100580.22
2022-12-26T15:46:54.536Z,100566.81
2022-12-26T15:49:21.431Z,100559.38
2022-12-26T15:51:55.413Z,100556.25
2022-12-26T15:54:23.674Z,100551.28
2022-12-26T15:56:50.495Z,100558.06
2022-12-26T15:59:17.836Z,100557.84
2022-12-26T16:01:44.518Z,100562.78
2022-12-26T16:04:11.471Z,100566.03
2022-12-26T16:06:38.596Z,100568.50
2022-12-26T16:09:05.191Z,100565.97
2022-12-26T16:11:32.436Z,100571.94
2022-12-26T16:13:59.377Z,100563.47
2022-12-26T16:16:26.409Z,100570.00
2022-12-26T16:18:53.325Z,100569.59
2022-12-26T16:24:07.681Z,100558.59
2022-12-26T16:26:34.235Z,100558.16
2022-12-26T16:29:00.732Z,100556.22
2022-12-26T16:37:03.170Z,100556.69
2022-12-26T16:39:30.039Z,100559.34
2022-12-26T16:41:56.456Z,100552.13
2022-12-26T16:44:28.319Z,100556.91
2022-12-26T16:46:57.457Z,100562.47
2022-12-26T16:49:23.874Z,100556.06
2022-12-26T16:51:50.249Z,100555.25
2022-12-26T16:54:17.600Z,100551.97
2022-12-26T16:56:44.322Z,100546.03
2022-12-26T16:59:15.467Z,100537.38
2022-12-26T17:01:43.930Z,100531.19
2022-12-26T17:04:10.545Z,100541.31
2022-12-26T17:06:36.957Z,100539.69
2022-12-26T17:09:03.397Z,100546.50
2022-12-26T17:11:30.104Z,100552.09
2022-12-26T17:13:56.928Z,100553.34
2022-12-26T17:16:23.258Z,100546.78
2022-12-26T17:18:49.745Z,100548.63
2022-12-26T17:21:16.424Z,100541.06
2022-12-26T17:23:43.981Z,100548.50
2022-12-26T17:26:10.276Z,100552.66
2022-12-26T17:28:37.492Z,100552.66
2022-12-26T17:31:04.432Z,100556.59
2022-12-26T17:33:31.034Z,100568.94
2022-12-26T17:38:44.054Z,100581.72
2022-12-26T17:41:12.395Z,100582.78
2022-12-26T17:43:39.156Z,100588.13
2022-12-26T17:46:06.691Z,100589.97
2022-12-26T17:48:33.108Z,100582.16
2022-12-26T17:51:00.101Z,100586.72
2022-12-26T17:53:26.505Z,100583.22
2022-12-26T17:55:53.361Z,100588.78
2022-12-26T18:01:12.726Z,100597.03
2022-12-26T18:03:41.004Z,100582.00
2022-12-26T18:06:07.567Z,100582.22
2022-12-26T18:08:34.441Z,100580.78
2022-12-26T18:11:01.027Z,100588.63
2022-12-26T18:16:03.747Z,100586.56
2022-12-26T18:18:30.623Z,100605.78
2022-12-26T18:20:57.022Z,100619.16
2022-12-26T18:23:24.017Z,100635.44
2022-12-26T18:25:54.336Z,100633.81
2022-12-26T18:28:21.223Z,100634.63
2022-12-26T18:30:47.923Z,100629.25
2022-12-26T18:33:14.760Z,100636.69
2022-12-26T18:35:41.365Z,100648.66
2022-12-26T18:38:08.461Z,100641.66
2022-12-26T18:40:34.861Z,100649.69
2022-12-26T18:43:01.649Z,100654.22
2022-12-26T18:45:28.123Z,100638.97
2022-12-26T18:47:54.963Z,100645.38
2022-12-26T18:50:21.760Z,100649.88
2022-12-26T18:52:53.343Z,100642.91
2022-12-26T18:55:20.198Z,100637.53
2022-12-26T18:57:46.588Z,100635.91
2022-12-26T19:00:13.228Z,100626.25
2022-12-26T19:02:40.137Z,100632.63
2022-12-26T19:05:07.807Z,100634.69
2022-12-26T19:07:34.823Z,100635.75
2022-12-26T19:10:01.452Z,100642.13
2022-12-26T19:12:28.553Z,100642.34
2022-12-26T19:14:54.937Z,100633.47
2022-12-26T19:17:21.315Z,100639.03
2022-12-26T19:19:47.755Z,100648.31
2022-12-26T19:22:14.070Z,100656.56
2022-12-26T19:24:40.425Z,100651.22
2022-12-26T19:27:07.641Z,100639.91
2022-12-26T19:29:34.620Z,100649.19
2022-12-26T19:32:01.061Z,100653.72
2022-12-26T19:34:27.712Z,100654.97
2022-12-26T19:36:54.646Z,100667.50
2022-12-26T19:39:21.388Z,100671.44
2022-12-26T19:41:47.674Z,100676.78
2022-12-26T19:44:14.393Z,100674.56
2022-12-26T19:46:40.729Z,100682.59
2022-12-26T19:49:07.676Z,100684.66
2022-12-26T19:51:34.048Z,100673.13
2022-12-26T19:54:00.419Z,100685.06
2022-12-26T19:56:26.736Z,100692.06
2022-12-26T19:58:56.773Z,100686.94
2022-12-26T20:01:23.927Z,100691.44
2022-12-26T20:03:50.678Z,100699.69
2022-12-26T20:06:17.503Z,100703.19
2022-12-26T20:08:44.728Z,100705.88
2022-12-26T20:11:11.134Z,100721.09
2022-12-26T20:13:37.498Z,100710.38
2022-12-26T20:18:45.787Z,100715.53
2022-12-26T20:21:13.124Z,100723.78
2022-12-26T20:23:39.472Z,100717.81
2022-12-26T20:26:05.754Z,100725.63
2022-12-26T20:28:32.166Z,100724.00
2022-12-26T20:30:58.596Z,100733.03
2022-12-26T20:33:26.087Z,100738.38
2022-12-26T20:35:52.507Z,100754.44
2022-12-26T20:38:19.246Z,100771.53
2022-12-26T20:40:50.083Z,100771.53
2022-12-26T20:43:16.870Z,100775.25
2022-12-26T20:45:43.314Z,100771.53
2022-12-26T20:48:09.886Z,100780.59
2022-12-26T20:50:36.217Z,100757.78
2022-12-26T20:53:02.534Z,100761.66
2022-12-26T20:55:28.983Z,100761.88
2022-12-26T20:57:55.337Z,100762.91
2022-12-26T21:00:21.622Z,100773.59
2022-12-26T21:02:48.116Z,100771.94
2022-12-26T21:05:14.575Z,100765.78
2022-12-26T21:07:41.339Z,100775.44
2022-12-26T21:10:07.735Z,100780.78
2022-12-26T21:12:34.135Z,100788.81
2022-12-26T21:15:00.644Z,100794.16
2022-12-26T21:17:27.323Z,100807.75
2022-12-26T21:19:53.977Z,100815.78
2022-12-26T21:22:20.408Z,100816.41
2022-12-26T21:24:47.044Z,100812.91
2022-12-26T21:27:13.313Z,100814.53
2022-12-26T21:29:39.837Z,100819.88
2022-12-26T21:32:06.196Z,100839.84
2022-12-26T21:34:32.489Z,100849.53
2022-12-26T21:36:58.819Z,100845.22
2022-12-26T21:39:25.389Z,100846.03
2022-12-26T21:41:51.780Z,100827.50
2022-12-26T21:44:18.087Z,100838.00
2022-12-26T21:46:44.532Z,100842.72
2022-12-26T21:49:11.248Z,100857.97
2022-12-26T21:51:37.911Z,100869.50
2022-12-26T21:54:04.379Z,100876.91
2022-12-26T21:56:30.843Z,100898.31
2022-12-26T21:58:57.253Z,100907.97
2022-12-26T22:01:23.756Z,100907.97
2022-12-26T22:03:50.146Z,100916.00
2022-12-26T22:06:16.465Z,100921.75
2022-12-26T22:08:43.091Z,100923.63
2022-12-26T22:11:09.467Z,100924.44
2022-12-26T22:13:36.011Z,100930.63
2022-12-26T22:16:02.396Z,100933.28
2022-12-26T22:18:29.227Z,100940.47
2022-12-26T22:20:55.590Z,100948.50
2022-12-26T22:23:21.891Z,100954.06
2022-12-26T22:25:48.181Z,100967.66
2022-12-26T22:28:20.159Z,100972.78
2022-12-26T22:30:49.487Z,100990.72
2022-12-26T22:33:15.898Z,100980.81
2022-12-26T22:35:42.264Z,100988.84
2022-12-26T22:38:08.883Z,100989.06
2022-12-26T22:40:35.486Z,100983.72
2022-12-26T22:43:02.470Z,100989.06
2022-12-26T22:45:28.857Z,100997.28
2022-12-26T22:47:55.296Z,100988.44
2022-12-26T22:50:21.840Z,100999.13
2022-12-26T22:52:48.780Z,101014.56
2022-12-26T22:55:15.240Z,101020.72
2022-12-26T22:57:41.664Z,101025.88
2022-12-26T23:00:09.685Z,101024.44
2022-12-26T23:02:37.205Z,101035.97
2022-12-26T23:05:04.261Z,101036.97
2022-12-26T23:07:31.605Z,101034.28
2022-12-26T23:09:57.932Z,101047.66
2022-12-26T23:12:24.334Z,101044.19
2022-12-26T23:14:50.698Z,101043.34
2022-12-26T23:17:17.841Z,101055.94
2022-12-26T23:19:44.319Z,101053.25
2022-12-26T23:22:11.110Z,101055.09
2022-12-26T23:24:37.842Z,101051.56
2022-12-26T23:27:11.692Z,101054.44
2022-12-26T23:29:38.193Z,101050.97
2022-12-26T23:32:04.926Z,101050.13
2022-12-26T23:34:31.727Z,101056.31
2022-12-26T23:36:58.585Z,101048.28
2022-12-26T23:39:25.283Z,101055.47
2022-12-26T23:41:51.746Z,101061.88
2022-12-26T23:44:18.288Z,101071.72
2022-12-26T23:46:44.640Z,101062.91
2022-12-26T23:49:11.367Z,101069.88
2022-12-26T23:51:38.327Z,101065.56
2022-12-26T23:54:05.137Z,101065.75
2022-12-26T23:56:31.583Z,101066.56
2022-12-26T23:58:57.930Z,101072.94
